Time;durP1;ratioP1;P1;durP2;ratioP2;P2;SDS_P1;SDS_P2;PMS_P1;PMS_P2;Temp;Humidity;BMP_temperature;BMP_pressure;BME280_temperature;BME280_humidity;BME280_pressure;Samples;Min_cycle;Max_cycle;Signal;HPM_P1;HPM_P2
2022/08/05 00:00:12;;;;;;;8.78;6.03;;;;;;;20.47;61.32;98559.16;1657113;86;27540;-60
2022/08/05 00:02:38;;;;;;;8.03;6.45;;;;;;;20.45;61.44;98550.39;1656816;86;25699;-63
2022/08/05 00:05:07;;;;;;;9.05;6.35;;;;;;;20.40;61.48;98549.33;1657007;86;25878;-57
2022/08/05 00:07:33;;;;;;;7.58;6.28;;;;;;;20.38;62.02;98553.89;1656615;86;25700;-64
2022/08/05 00:09:59;;;;;;;7.70;5.97;;;;;;;20.30;62.06;98552.23;1657067;86;25653;-58
2022/08/05 00:12:26;;;;;;;7.35;5.85;;;;;;;20.29;62.04;98548.64;1658436;86;27505;-61
2022/08/05 00:14:52;;;;;;;7.95;6.15;;;;;;;20.27;62.16;98546.83;1664053;86;25422;-57
2022/08/05 00:17:18;;;;;;;9.28;6.22;;;;;;;20.27;62.14;98550.22;1659804;84;25834;-59
2022/08/05 00:19:44;;;;;;;7.58;6.62;;;;;;;20.30;62.35;98548.06;1643225;85;26415;-59
2022/08/05 00:22:10;;;;;;;8.93;7.03;;;;;;;20.26;62.19;98547.23;1645849;87;25664;-61
2022/08/05 00:24:36;;;;;;;7.58;6.35;;;;;;;20.27;62.29;98544.66;1646141;86;27425;-61
2022/08/05 00:27:04;;;;;;;7.33;6.45;;;;;;;20.26;62.29;98554.19;1645865;85;26229;-61
2022/08/05 00:29:30;;;;;;;7.12;6.35;;;;;;;20.23;62.33;98551.56;1645785;85;25435;-60
2022/08/05 00:31:56;;;;;;;9.83;7.12;;;;;;;20.19;62.34;98542.39;1646408;86;25727;-58
2022/08/05 00:34:23;;;;;;;10.45;6.75;;;;;;;20.20;62.35;98549.55;1646336;87;25693;-61
2022/08/05 00:36:49;;;;;;;11.18;7.03;;;;;;;20.19;62.44;98553.52;1645953;86;27439;-60
2022/08/05 00:39:15;;;;;;;6.87;6.25;;;;;;;20.16;62.75;98548.14;1645825;87;25702;-58
2022/08/05 00:41:47;;;;;;;7.87;6.60;;;;;;;20.11;62.76;98544.30;1645847;87;25498;-60
2022/08/05 00:44:13;;;;;;;8.05;6.03;;;;;;;20.08;62.74;98539.49;1646217;87;25656;-61
2022/08/05 00:46:39;;;;;;;9.25;7.17;;;;;;;20.02;63.02;98543.80;1646213;85;25440;-59
2022/08/05 00:49:12;;;;;;;7.22;6.45;;;;;;;19.96;63.26;98539.72;1646303;85;28301;-58
2022/08/05 00:51:46;;;;;;;10.58;7.33;;;;;;;19.92;63.09;98543.27;1645776;86;25897;-58
2022/08/05 00:54:19;;;;;;;10.80;7.33;;;;;;;19.88;63.26;98534.67;1646243;86;25631;-58
2022/08/05 00:56:52;;;;;;;8.68;6.70;;;;;;;19.85;63.58;98537.63;1646226;86;25760;-60
2022/08/05 00:59:21;;;;;;;7.70;6.55;;;;;;;19.80;63.62;98534.59;1646055;86;25478;-58
2022/08/05 01:01:47;;;;;;;8.30;6.87;;;;;;;19.79;63.67;98532.20;1646243;86;27449;-58
2022/08/05 01:04:13;;;;;;;10.15;7.22;;;;;;;19.79;64.09;98537.17;1646195;86;25457;-59
2022/08/05 01:06:39;;;;;;;12.40;7.10;;;;;;;19.78;64.03;98538.34;1646130;86;25672;-60
2022/08/05 01:09:05;;;;;;;9.58;7.03;;;;;;;19.73;64.37;98533.70;1645960;86;25767;-59
2022/08/05 01:11:35;;;;;;;8.43;6.90;;;;;;;19.72;64.19;98535.70;1646045;85;25671;-58
2022/08/05 01:14:32;;;;;;;9.40;7.70;;;;;;;19.73;64.01;98526.76;1628329;86;27466;-58
2022/08/05 01:17:22;;;;;;;9.40;7.90;;;;;;;19.77;63.98;98527.02;1623131;87;25762;-59
2022/08/05 01:20:03;;;;;;;9.00;7.63;;;;;;;19.73;64.12;98528.15;1623404;87;25496;-61
2022/08/05 01:22:51;;;;;;;10.45;7.10;;;;;;;19.70;64.08;98528.33;1623385;87;25605;-60
2022/08/05 01:25:47;;;;;;;12.68;7.42;;;;;;;19.65;64.39;98521.70;1622867;88;25672;-59
2022/08/05 01:28:34;;;;;;;9.60;7.08;;;;;;;19.62;64.36;98526.62;1622954;87;27599;-61
2022/08/05 01:31:40;;;;;;;9.18;7.30;;;;;;;19.58;64.63;98522.43;1623020;87;27166;-61
2022/08/05 01:34:38;;;;;;;10.30;7.05;;;;;;;19.53;64.55;98518.59;1622775;87;25491;-57
2022/08/05 01:37:18;;;;;;;8.40;7.50;;;;;;;19.48;64.96;98522.50;1527957;93;25755;-59
2022/08/05 01:39:47;;;;;;;9.63;7.42;;;;;;;19.44;65.07;98514.71;1526659;93;25549;-60
2022/08/05 01:42:18;;;;;;;9.28;7.10;;;;;;;19.38;65.10;98516.22;1566332;90;27443;-60
2022/08/05 01:44:46;;;;;;;9.88;7.55;;;;;;;19.38;65.07;98517.61;1566549;91;25488;-58
2022/08/05 01:47:17;;;;;;;9.88;7.37;;;;;;;19.34;65.50;98520.94;1566278;90;25888;-60
2022/08/05 01:49:45;;;;;;;12.50;7.90;;;;;;;19.27;65.79;98514.11;1565738;90;25727;-57
2022/08/05 01:52:13;;;;;;;9.03;7.80;;;;;;;19.27;65.63;98514.11;1566871;91;25742;-60
2022/08/05 01:54:57;;;;;;;11.95;8.13;;;;;;;19.24;65.59;98507.10;1566516;91;27489;-58
2022/08/05 01:57:39;;;;;;;10.20;8.00;;;;;;;19.28;65.81;98506.55;1566268;91;25735;-60
2022/08/05 02:00:12;;;;;;;14.87;8.10;;;;;;;19.30;65.71;98506.98;1565972;90;25775;-59
2022/08/05 02:02:47;;;;;;;11.88;7.87;;;;;;;19.29;65.76;98504.01;1565627;91;25574;-60
2022/08/05 02:05:14;;;;;;;12.18;8.18;;;;;;;19.30;65.70;98505.59;1530695;93;25768;-60
2022/08/05 02:07:43;;;;;;;9.70;8.58;;;;;;;19.29;65.69;98509.56;1531323;93;27376;-60
2022/08/05 02:10:10;;;;;;;10.43;7.90;;;;;;;19.26;65.81;98507.53;1533871;88;26241;-61
2022/08/05 02:12:46;;;;;;;11.73;7.37;;;;;;;19.22;66.09;98510.83;1627730;87;25520;-59
2022/08/05 02:15:23;;;;;;;12.25;7.97;;;;;;;19.16;66.04;98504.23;1632065;87;25941;-59
2022/08/05 02:18:06;;;;;;;11.93;8.03;;;;;;;19.15;66.41;98505.42;1630874;86;25631;-60
2022/08/05 02:20:47;;;;;;;10.72;8.18;;;;;;;19.11;66.32;98496.83;1619587;86;27431;-58
2022/08/05 02:23:16;;;;;;;10.75;7.35;;;;;;;19.09;66.55;98498.59;1625498;87;25749;-58
2022/08/05 02:25:44;;;;;;;10.25;7.20;;;;;;;19.03;66.60;98495.89;1631800;87;25732;-58
2022/08/05 02:28:13;;;;;;;10.45;7.80;;;;;;;19.04;66.89;98493.31;1632112;87;25769;-57
2022/08/05 02:30:46;;;;;;;10.38;8.03;;;;;;;19.01;67.28;98487.94;1632096;87;25467;-57
2022/08/05 02:33:15;;;;;;;9.50;7.90;;;;;;;18.99;67.22;98486.11;1632165;87;27442;-57
2022/08/05 02:35:44;;;;;;;14.05;8.30;;;;;;;18.98;67.23;98484.52;1631931;86;25931;-58
2022/08/05 02:38:12;;;;;;;9.48;7.42;;;;;;;18.97;67.40;98482.89;1630848;86;25616;-58
2022/08/05 02:40:41;;;;;;;12.35;7.83;;;;;;;18.92;67.51;98484.63;1631978;87;25762;-57
2022/08/05 02:43:13;;;;;;;10.82;7.58;;;;;;;18.89;67.62;98485.38;1632227;87;25629;-63
2022/08/05 02:45:42;;;;;;;9.25;8.20;;;;;;;18.84;67.61;98485.11;1632243;87;27450;-64
2022/08/05 02:48:10;;;;;;;8.33;7.45;;;;;;;18.84;67.50;98485.11;1631911;87;25756;-63
2022/08/05 02:50:37;;;;;;;10.88;8.38;;;;;;;18.78;68.00;98483.83;1631783;87;25643;-58
2022/08/05 02:53:04;;;;;;;11.65;8.10;;;;;;;18.72;67.89;98483.93;1631958;87;26696;-59
2022/08/05 02:55:32;;;;;;;11.73;8.78;;;;;;;18.72;68.12;98480.58;1632058;87;25634;-58
2022/08/05 02:57:59;;;;;;;10.48;7.80;;;;;;;18.73;68.06;98480.78;1631951;87;28441;-58
2022/08/05 03:00:26;;;;;;;9.68;8.33;;;;;;;18.69;68.28;98484.09;1631973;87;25451;-61
2022/08/05 03:02:54;;;;;;;9.60;8.13;;;;;;;18.65;68.20;98490.97;1632379;86;25757;-61
2022/08/05 03:05:20;;;;;;;10.38;8.13;;;;;;;18.64;68.25;98476.08;1613356;87;25842;-63
2022/08/05 03:07:47;;;;;;;9.88;8.18;;;;;;;18.64;68.31;98482.44;1632192;87;25607;-59
2022/08/05 03:10:15;;;;;;;10.60;8.15;;;;;;;18.68;68.24;98481.90;1632116;87;27418;-60
2022/08/05 03:12:41;;;;;;;10.25;8.00;;;;;;;18.72;68.37;98480.58;1631732;87;25434;-62
2022/08/05 03:15:10;;;;;;;11.00;8.10;;;;;;;18.73;68.33;98475.80;1631762;87;25530;-61
2022/08/05 03:17:36;;;;;;;10.53;8.40;;;;;;;18.68;68.56;98475.54;1632030;86;25828;-60
2022/08/05 03:20:05;;;;;;;9.80;8.53;;;;;;;18.64;68.79;98472.73;1632342;86;25646;-60
2022/08/05 03:22:32;;;;;;;9.05;8.03;;;;;;;18.61;68.77;98480.98;1631878;87;28453;-62
2022/08/05 03:24:59;;;;;;;13.80;9.08;;;;;;;18.59;68.84;98478.58;1631957;87;25656;-60
2022/08/05 03:27:25;;;;;;;12.33;8.50;;;;;;;18.58;69.05;98486.70;1632028;87;25712;-62
2022/08/05 03:29:52;;;;;;;13.18;8.90;;;;;;;18.55;69.13;98483.28;1631994;87;25727;-58
2022/08/05 03:32:19;;;;;;;9.85;8.80;;;;;;;18.53;69.20;98486.43;1632099;87;25501;-61
2022/08/05 03:34:46;;;;;;;9.40;8.25;;;;;;;18.52;69.14;98483.45;1632049;87;27403;-58
2022/08/05 03:37:12;;;;;;;11.22;8.93;;;;;;;18.50;69.41;98478.84;1631747;87;25442;-60
2022/08/05 03:39:56;;;;;;;11.85;8.20;;;;;;;18.50;69.41;98479.42;1631508;87;25443;-59
2022/08/05 03:42:22;;;;;;;10.48;8.38;;;;;;;18.49;69.63;98477.26;1636069;87;26698;-58
2022/08/05 03:44:48;;;;;;;20.70;8.60;;;;;;;18.49;69.75;98476.45;1634924;87;25796;-64
2022/08/05 03:47:15;;;;;;;9.73;8.80;;;;;;;18.48;69.83;98472.86;1630823;87;27456;-60
2022/08/05 03:49:41;;;;;;;12.45;8.50;;;;;;;18.52;69.55;98478.48;1638858;86;26488;-58
2022/08/05 03:52:11;;;;;;;9.08;7.80;;;;;;;18.54;69.73;98483.08;1630755;87;25710;-59
2022/08/05 03:54:55;;;;;;;9.35;8.10;;;;;;;18.54;70.05;98483.08;1653448;86;25750;-59
2022/08/05 03:57:25;;;;;;;9.80;7.85;;;;;;;18.54;70.02;98477.53;1634084;87;25721;-58
2022/08/05 04:00:04;;;;;;;;;;;;;;;18.53;70.50;98482.27;1636517;87;27313;-60
2022/08/05 04:02:32;;;;;;;11.00;8.55;;;;;;;18.56;70.43;98479.33;1633640;87;25938;-59
2022/08/05 04:05:00;;;;;;;10.68;8.23;;;;;;;18.64;70.35;98474.69;1634171;87;25707;-57
2022/08/05 04:07:28;;;;;;;10.28;9.13;;;;;;;18.71;70.12;98478.17;1633917;87;26696;-61
2022/08/05 04:09:55;;;;;;;11.15;8.75;;;;;;;18.78;69.97;98476.31;1634109;87;25761;-58
2022/08/05 04:12:22;;;;;;;9.13;8.15;;;;;;;18.88;70.15;98473.45;1634062;87;27784;-58
2022/08/05 04:14:48;;;;;;;10.63;8.30;;;;;;;18.93;69.79;98473.15;1637025;87;25674;-58
2022/08/05 04:17:15;;;;;;;10.48;8.63;;;;;;;18.96;69.54;98470.20;1638485;87;25512;-59
2022/08/05 04:19:44;;;;;;;9.88;8.80;;;;;;;19.00;69.69;98467.48;1638515;86;25723;-58
2022/08/05 04:22:11;;;;;;;9.08;8.08;;;;;;;19.10;69.51;98468.81;1638722;86;25703;-60
2022/08/05 04:24:40;;;;;;;11.97;8.43;;;;;;;19.20;69.49;98463.98;1638694;86;27086;-58
2022/08/05 04:27:07;;;;;;;11.90;8.75;;;;;;;19.35;69.09;98464.19;1637921;87;25611;-58
2022/08/05 04:29:34;;;;;;;12.95;8.30;;;;;;;19.48;68.81;98467.50;1638510;87;25616;-58
2022/08/05 04:32:01;;;;;;;10.75;8.60;;;;;;;19.55;68.76;98465.61;1638780;87;26075;-58
2022/08/05 04:34:27;;;;;;;12.03;8.78;;;;;;;19.61;68.65;98468.87;1638535;87;25467;-60
2022/08/05 04:36:54;;;;;;;10.05;8.10;;;;;;;19.66;68.57;98462.95;1638408;87;27476;-58
2022/08/05 04:39:21;;;;;;;9.60;8.55;;;;;;;19.66;68.41;98465.73;1638405;87;25676;-58
2022/08/05 04:41:48;;;;;;;10.85;8.60;;;;;;;19.59;68.55;98463.45;1638482;87;25462;-59
2022/08/05 04:44:15;;;;;;;11.43;8.65;;;;;;;19.60;68.63;98462.30;1638568;87;25703;-59
2022/08/05 04:46:42;;;;;;;10.82;8.13;;;;;;;19.62;68.43;98463.51;1638668;87;25581;-58
2022/08/05 04:49:08;;;;;;;9.45;8.48;;;;;;;19.74;68.23;98470.78;1638785;86;27472;-58
2022/08/05 04:51:35;;;;;;;12.40;8.33;;;;;;;19.82;68.16;98461.92;1638479;86;25635;-58
2022/08/05 04:54:01;;;;;;;10.08;8.73;;;;;;;19.90;68.07;98464.19;1638474;87;25715;-58
2022/08/05 04:56:27;;;;;;;9.25;7.62;;;;;;;19.84;67.95;98465.14;1638458;87;27917;-57
2022/08/05 04:58:53;;;;;;;10.40;8.90;;;;;;;19.83;68.14;98462.13;1638469;87;25719;-58
2022/08/05 05:01:19;;;;;;;9.58;8.63;;;;;;;19.91;68.18;98462.42;1638814;87;26829;-58
2022/08/05 05:03:45;;;;;;;10.65;8.35;;;;;;;20.12;68.09;98455.48;1638671;87;25693;-58
2022/08/05 05:06:12;;;;;;;13.58;8.70;;;;;;;20.31;68.09;98457.25;1638740;87;25721;-58
2022/08/05 05:08:39;;;;;;;12.13;9.20;;;;;;;20.50;67.68;98458.78;1638424;86;27872;-58
2022/08/05 05:11:06;;;;;;;12.55;9.15;;;;;;;20.67;67.57;98462.27;1638054;87;25593;-59
2022/08/05 05:13:32;;;;;;;10.60;9.03;;;;;;;20.85;67.10;98461.60;1634397;87;27542;-59
2022/08/05 05:15:58;;;;;;;14.40;8.98;;;;;;;20.96;67.00;98460.31;1660489;84;25903;-62
2022/08/05 05:18:24;;;;;;;13.68;9.28;;;;;;;20.96;66.90;98460.31;1641778;85;25476;-60
2022/08/05 05:20:55;;;;;;;11.93;8.75;;;;;;;21.01;66.96;98461.92;1667648;86;25703;-58
2022/08/05 05:23:22;;;;;;;15.28;9.43;;;;;;;21.02;67.05;98456.55;1667424;86;25615;-63
2022/08/05 05:25:48;;;;;;;10.40;8.80;;;;;;;21.13;67.05;98460.79;1667750;86;27608;-59
2022/08/05 05:28:14;;;;;;;12.93;9.00;;;;;;;21.28;67.51;98466.64;1646207;85;25858;-58
2022/08/05 05:30:41;;;;;;;15.05;8.78;;;;;;;21.33;66.41;98463.26;1632126;87;25707;-58
2022/08/05 05:33:08;;;;;;;11.03;9.40;;;;;;;21.43;66.75;98468.88;1631786;87;25654;-60
2022/08/05 05:35:37;;;;;;;12.07;8.55;;;;;;;21.74;66.50;98467.19;1632087;87;25647;-58
2022/08/05 05:38:05;;;;;;;10.53;8.80;;;;;;;22.01;65.75;98468.84;1631818;87;27438;-58
2022/08/05 05:40:33;;;;;;;12.00;8.08;;;;;;;22.12;65.37;98464.67;1631772;87;25957;-62
2022/08/05 05:43:00;;;;;;;12.05;8.03;;;;;;;22.23;65.24;98468.28;1631981;87;25462;-59
2022/08/05 05:45:27;;;;;;;10.80;8.50;;;;;;;22.38;64.48;98464.89;1632980;87;25820;-62
2022/08/05 05:47:53;;;;;;;11.90;9.23;;;;;;;22.39;64.90;98465.70;1633451;87;25599;-58
2022/08/05 05:50:20;;;;;;;11.22;8.23;;;;;;;22.54;64.35;98469.28;1633652;87;28049;-60
2022/08/05 05:52:47;;;;;;;10.23;8.15;;;;;;;22.72;63.53;98469.28;1633545;87;25657;-61
2022/08/05 05:55:16;;;;;;;8.90;8.00;;;;;;;22.79;63.55;98473.45;1633309;87;25518;-59
2022/08/05 05:57:45;;;;;;;9.70;8.08;;;;;;;22.79;63.33;98468.46;1633528;87;25749;-61
2022/08/05 06:00:16;;;;;;;9.55;8.10;;;;;;;22.90;64.23;98467.85;1633503;87;25712;-59
2022/08/05 06:02:44;;;;;;;11.12;8.08;;;;;;;22.98;62.79;98467.83;1633605;87;27376;-59
2022/08/05 06:05:13;;;;;;;10.43;7.80;;;;;;;22.92;62.89;98461.27;1633375;87;25573;-59
2022/08/05 06:07:40;;;;;;;12.07;8.30;;;;;;;23.03;62.45;98464.02;1633426;87;25700;-59
2022/08/05 06:10:09;;;;;;;8.95;7.95;;;;;;;23.04;62.51;98460.04;1633145;87;25763;-59
2022/08/05 06:12:37;;;;;;;10.13;8.23;;;;;;;23.05;62.37;98453.83;1633495;87;25460;-59
2022/08/05 06:15:06;;;;;;;10.45;8.33;;;;;;;23.27;62.24;98448.17;1633340;87;28084;-60
2022/08/05 06:17:33;;;;;;;8.98;7.53;;;;;;;23.54;61.86;98456.06;1633238;87;25684;-61
2022/08/05 06:20:00;;;;;;;9.18;7.80;;;;;;;23.71;62.22;98455.00;1633516;87;25451;-61
2022/08/05 06:22:31;;;;;;;10.23;7.97;;;;;;;23.93;61.34;98459.25;1633364;87;26005;-58
2022/08/05 06:24:58;;;;;;;12.20;8.50;;;;;;;24.00;60.94;98459.79;1633495;87;25522;-60
2022/08/05 06:27:25;;;;;;;8.68;7.80;;;;;;;24.18;61.01;98459.69;1650649;86;27419;-59
2022/08/05 06:29:52;;;;;;;8.73;7.83;;;;;;;24.34;60.47;98456.16;1654707;86;25708;-60
2022/08/05 06:32:19;;;;;;;10.35;7.90;;;;;;;24.37;59.88;98467.34;1631538;86;25471;-59
2022/08/05 06:34:46;;;;;;;10.80;7.45;;;;;;;24.55;59.61;98460.77;1628642;87;25983;-59
2022/08/05 06:37:13;;;;;;;11.90;8.05;;;;;;;24.79;59.06;98453.96;1631624;87;25656;-60
2022/08/05 06:39:40;;;;;;;9.35;7.70;;;;;;;24.79;57.84;98457.57;1630137;87;27490;-60
2022/08/05 06:42:07;;;;;;;9.35;7.42;;;;;;;24.81;58.34;98449.52;1630106;88;26105;-59
2022/08/05 06:44:34;;;;;;;7.92;7.12;;;;;;;24.92;58.72;98459.25;1630119;88;25602;-60
2022/08/05 06:47:01;;;;;;;12.15;7.37;;;;;;;25.18;58.40;98461.17;1631969;87;25908;-59
2022/08/05 06:49:27;;;;;;;7.95;7.15;;;;;;;25.51;57.85;98462.18;1649107;86;25624;-60
2022/08/05 06:51:54;;;;;;;9.88;7.37;;;;;;;25.78;57.02;98464.23;1659254;86;28044;-59
2022/08/05 06:54:21;;;;;;;10.88;7.58;;;;;;;25.98;56.82;98462.75;1633274;87;25611;-60
2022/08/05 06:56:48;;;;;;;10.25;7.08;;;;;;;26.12;55.98;98455.52;1633182;87;25668;-60
2022/08/05 06:59:14;;;;;;;8.53;6.85;;;;;;;26.31;56.20;98456.84;1633137;87;25818;-60
2022/08/05 07:01:41;;;;;;;10.78;7.12;;;;;;;26.49;54.50;98457.77;1633207;87;25721;-60
2022/08/05 07:04:08;;;;;;;7.65;6.85;;;;;;;26.63;54.53;98460.34;1633360;87;27597;-60
2022/08/05 07:06:35;;;;;;;7.95;6.85;;;;;;;26.84;53.83;98460.35;1633186;87;25743;-60
2022/08/05 07:09:02;;;;;;;9.15;6.53;;;;;;;27.02;54.58;98455.22;1631439;87;25583;-61
2022/08/05 07:11:30;;;;;;;7.80;6.55;;;;;;;27.24;53.13;98459.61;1633131;87;25802;-60
2022/08/05 07:16:48;;;;;;;8.63;6.70;;;;;;;27.66;51.41;98456.37;1633204;87;25685;-59
2022/08/05 07:19:20;;;;;;;9.43;6.50;;;;;;;27.93;50.73;98461.78;1633234;87;25722;-59
2022/08/05 07:21:48;;;;;;;8.80;6.20;;;;;;;28.14;49.89;98461.09;1633267;87;25700;-61
2022/08/05 07:24:17;;;;;;;9.23;6.40;;;;;;;28.24;47.36;98463.48;1632454;86;25752;-59
2022/08/05 07:26:45;;;;;;;13.70;7.28;;;;;;;28.33;48.88;98456.45;1631893;87;25739;-59
2022/08/05 07:29:12;;;;;;;10.28;6.25;;;;;;;28.56;48.04;98460.47;1632059;87;27507;-60
2022/08/05 07:31:40;;;;;;;9.30;6.60;;;;;;;28.76;47.13;98458.17;1631927;86;25675;-60
2022/08/05 07:34:07;;;;;;;7.50;6.08;;;;;;;29.07;48.05;98462.58;1631941;86;25656;-61
2022/08/05 07:36:34;;;;;;;10.35;6.50;;;;;;;29.37;47.40;98451.28;1630541;86;26127;-59
2022/08/05 07:39:03;;;;;;;8.70;6.42;;;;;;;29.58;46.22;98453.33;1630136;88;25455;-59
2022/08/05 07:41:30;;;;;;;7.85;6.05;;;;;;;29.75;46.11;98452.59;1629288;88;27467;-60
2022/08/05 07:43:58;;;;;;;8.78;6.70;;;;;;;29.91;45.82;98454.53;1631282;87;25436;-59
2022/08/05 07:46:28;;;;;;;10.18;5.90;;;;;;;30.14;45.58;98459.66;1633394;87;25632;-59
2022/08/05 07:48:58;;;;;;;7.53;5.70;;;;;;;30.36;45.64;98448.45;1633382;87;25678;-60
2022/08/05 07:51:25;;;;;;;7.92;6.08;;;;;;;30.70;43.75;98444.69;1633349;87;25554;-61
2022/08/05 07:53:52;;;;;;;13.15;6.05;;;;;;;30.84;44.04;98445.45;1631429;87;27544;-59
2022/08/05 07:56:19;;;;;;;8.00;5.35;;;;;;;31.10;42.91;98446.13;1630032;87;25654;-59
2022/08/05 07:58:46;;;;;;;7.90;5.37;;;;;;;31.47;43.03;98449.85;1630191;88;25686;-60
2022/08/05 08:01:13;;;;;;;9.33;5.87;;;;;;;31.83;41.13;98442.62;1632201;87;25768;-59
2022/08/05 08:03:40;;;;;;;9.18;5.33;;;;;;;31.97;40.72;98446.31;1633260;87;25621;-59
2022/08/05 08:06:07;;;;;;;10.80;5.33;;;;;;;32.18;39.63;98451.73;1633179;87;27539;-60
2022/08/05 08:08:34;;;;;;;8.25;5.33;;;;;;;32.48;39.80;98454.78;1633227;87;25481;-59
2022/08/05 08:11:01;;;;;;;9.50;5.67;;;;;;;32.79;39.98;98444.77;1633210;87;25479;-59
2022/08/05 08:13:27;;;;;;;8.70;5.10;;;;;;;33.07;38.84;98444.63;1633304;87;25856;-60
2022/08/05 08:15:54;;;;;;;9.78;5.40;;;;;;;33.20;37.67;98443.80;1633223;87;25652;-58
2022/08/05 08:18:21;;;;;;;7.75;4.67;;;;;;;33.42;37.02;98452.77;1633179;87;27525;-59
2022/08/05 08:20:50;;;;;;;6.97;3.98;;;;;;;33.83;37.19;98449.66;1633310;87;25930;-60
2022/08/05 08:23:17;;;;;;;8.93;4.58;;;;;;;34.24;35.68;98441.41;1633518;87;25507;-59
2022/08/05 08:25:45;;;;;;;7.95;3.62;;;;;;;34.59;36.84;98443.70;1633309;87;25746;-59
2022/08/05 08:28:12;;;;;;;5.62;4.00;;;;;;;34.96;34.47;98446.11;1633117;87;25702;-60
2022/08/05 08:30:38;;;;;;;7.80;4.42;;;;;;;35.04;33.43;98447.31;1633285;87;27651;-60
2022/08/05 08:33:10;;;;;;;7.60;4.33;;;;;;;35.09;33.18;98447.27;1633127;87;25446;-59
2022/08/05 08:35:38;;;;;;;8.18;4.10;;;;;;;35.15;31.35;98441.05;1633395;87;25446;-59
2022/08/05 08:38:05;;;;;;;3.58;3.27;;;;;;;35.24;32.41;98445.88;1633327;87;26273;-59
2022/08/05 08:40:34;;;;;;;4.10;3.25;;;;;;;35.45;31.16;98448.19;1633360;87;25489;-59
2022/08/05 08:43:01;;;;;;;4.27;3.60;;;;;;;35.68;32.67;98453.49;1633685;87;27442;-57
2022/08/05 08:45:30;;;;;;;5.05;2.72;;;;;;;36.00;31.75;98449.48;1633700;87;25657;-57
2022/08/05 08:48:03;;;;;;;4.37;3.10;;;;;;;36.30;30.66;98446.55;1633617;87;25487;-57
2022/08/05 08:50:32;;;;;;;5.00;3.33;;;;;;;36.60;31.31;98447.83;1630637;86;25620;-59
2022/08/05 08:53:09;;;;;;;5.47;2.67;;;;;;;36.97;29.13;98449.95;1633348;87;25696;-57
2022/08/05 08:55:36;;;;;;;4.22;2.85;;;;;;;37.24;29.33;98449.36;1633502;87;27375;-57
2022/08/05 08:58:03;;;;;;;4.90;2.92;;;;;;;37.23;28.81;98450.00;1633358;87;25428;-57
2022/08/05 09:00:30;;;;;;;4.53;3.22;;;;;;;37.35;28.69;98444.38;1633451;87;25624;-56
2022/08/05 09:02:57;;;;;;;3.40;3.10;;;;;;;37.72;28.74;98447.97;1633210;87;25732;-57
2022/08/05 09:05:29;;;;;;;3.45;3.15;;;;;;;38.05;26.67;98443.63;1633619;87;25674;-58
2022/08/05 09:07:55;;;;;;;5.20;2.80;;;;;;;38.38;27.01;98447.99;1633230;87;27755;-56
2022/08/05 09:10:23;;;;;;;5.62;2.87;;;;;;;38.43;26.38;98447.89;1633369;87;25430;-56
2022/08/05 09:12:50;;;;;;;4.65;2.90;;;;;;;38.45;26.28;98441.77;1633418;87;25664;-56
2022/08/05 09:15:17;;;;;;;4.12;3.08;;;;;;;38.73;26.26;98438.27;1631793;87;25752;-56
2022/08/05 09:17:44;;;;;;;5.30;2.70;;;;;;;38.73;24.75;98428.89;1624483;88;25582;-58
2022/08/05 09:20:12;;;;;;;5.37;2.83;;;;;;;38.80;25.75;98430.48;1624295;87;27657;-57
2022/08/05 09:23:11;;;;;;;4.67;2.65;;;;;;;39.14;25.69;98425.63;1624418;88;25652;-57
2022/08/05 09:25:41;;;;;;;5.15;2.80;;;;;;;38.89;23.14;98422.45;1624171;88;25440;-57
2022/08/05 09:28:15;;;;;;;4.50;2.33;;;;;;;38.88;25.06;98423.73;1624340;88;26554;-57
2022/08/05 09:31:04;;;;;;;3.75;2.50;;;;;;;39.22;23.71;98419.38;1623569;87;25455;-57
2022/08/05 09:33:34;;;;;;;3.65;2.65;;;;;;;39.45;23.76;98420.17;1624549;88;27431;-57
2022/08/05 09:36:05;;;;;;;3.05;2.35;;;;;;;39.68;24.47;98419.42;1624201;88;26388;-57
2022/08/05 09:38:33;;;;;;;2.83;2.25;;;;;;;39.64;23.46;98413.30;1624487;88;25676;-57
2022/08/05 09:41:06;;;;;;;3.00;2.42;;;;;;;39.08;24.75;98416.21;1624049;88;25793;-58
2022/08/05 09:43:36;;;;;;;6.10;2.60;;;;;;;39.19;26.06;98409.74;1624458;88;25761;-60
2022/08/05 09:46:10;;;;;;;3.10;2.22;;;;;;;39.52;25.67;98415.34;1624185;87;27467;-58
2022/08/05 09:48:37;;;;;;;3.85;2.37;;;;;;;39.70;24.48;98412.49;1624169;87;25499;-58
2022/08/05 09:51:10;;;;;;;4.33;2.17;;;;;;;39.62;24.79;98415.11;1624269;88;25672;-58
2022/08/05 09:53:50;;;;;;;3.45;2.30;;;;;;;39.70;24.29;98407.55;1624512;87;25710;-59
2022/08/05 09:56:32;;;;;;;2.80;2.22;;;;;;;40.18;23.74;98410.59;1624512;87;25512;-63
2022/08/05 09:59:08;;;;;;;5.12;2.17;;;;;;;40.57;22.00;98413.19;1624290;87;28007;-58
2022/08/05 10:01:39;;;;;;;2.90;2.60;;;;;;;40.65;21.06;98416.28;1624236;87;25539;-59
2022/08/05 10:04:12;;;;;;;3.95;2.40;;;;;;;40.55;22.51;98411.49;1624294;87;25688;-59
2022/08/05 10:06:41;;;;;;;3.08;2.20;;;;;;;40.15;22.08;98412.41;1624059;87;25462;-62
2022/08/05 10:09:17;;;;;;;2.65;2.10;;;;;;;40.29;22.26;98406.88;1624452;88;25676;-58
2022/08/05 10:11:45;;;;;;;2.25;2.05;;;;;;;40.55;21.63;98407.86;1624486;87;28389;-59
2022/08/05 10:14:27;;;;;;;4.00;2.22;;;;;;;40.66;21.38;98404.91;1624162;87;25620;-58
2022/08/05 10:16:56;;;;;;;4.05;2.27;;;;;;;41.11;22.16;98404.53;1624165;86;25789;-58
2022/08/05 10:19:24;;;;;;;2.62;2.17;;;;;;;41.26;21.98;98396.31;1624629;87;25692;-58
2022/08/05 10:21:52;;;;;;;3.22;2.20;;;;;;;41.49;21.26;98397.59;1624550;87;25475;-59
2022/08/05 10:24:20;;;;;;;2.72;2.20;;;;;;;41.77;21.46;98401.51;1624643;88;27417;-59
2022/08/05 10:26:53;;;;;;;4.30;2.40;;;;;;;42.07;20.30;98400.67;1624719;87;25792;-59
2022/08/05 10:29:20;;;;;;;2.87;2.10;;;;;;;42.26;20.59;98393.56;1623904;87;25612;-60
2022/08/05 10:31:47;;;;;;;2.55;2.10;;;;;;;42.63;21.39;98398.45;1624499;88;25736;-58
2022/08/05 10:34:13;;;;;;;3.10;2.20;;;;;;;42.74;20.76;98394.63;1624408;87;25698;-58
2022/08/05 10:36:41;;;;;;;2.47;2.15;;;;;;;42.64;21.05;98392.00;1624524;87;27280;-62
2022/08/05 10:39:23;;;;;;;3.07;2.10;;;;;;;42.43;20.44;98391.77;1624384;88;25737;-63
2022/08/05 10:42:04;;;;;;;2.35;2.15;;;;;;;42.58;19.40;98385.55;1624224;87;25669;-58
2022/08/05 10:44:32;;;;;;;4.72;2.20;;;;;;;42.40;19.06;98382.12;1623604;87;26943;-58
2022/08/05 10:47:13;;;;;;;3.77;1.90;;;;;;;42.26;19.91;98389.89;1624328;88;25732;-58
2022/08/05 10:50:10;;;;;;;3.22;2.00;;;;;;;42.22;18.83;98386.52;1624335;87;27420;-58
2022/08/05 10:52:58;;;;;;;4.17;2.12;;;;;;;41.84;19.26;98381.47;1624036;87;25508;-58
2022/08/05 10:55:26;;;;;;;4.08;1.80;;;;;;;41.82;20.60;98379.13;1624396;88;25657;-58
2022/08/05 10:58:10;;;;;;;2.95;1.80;;;;;;;42.41;18.63;98383.68;1624579;88;25743;-58
2022/08/05 11:00:38;;;;;;;1.55;1.45;;;;;;;42.65;19.10;98382.06;1624273;88;25684;-58
2022/08/05 11:03:10;;;;;;;4.47;1.60;;;;;;;42.58;16.11;98389.21;1624382;87;27256;-59
2022/08/05 11:05:38;;;;;;;2.22;1.90;;;;;;;42.57;17.05;98384.00;1624147;88;25461;-60
2022/08/05 11:08:09;;;;;;;3.77;2.13;;;;;;;42.46;18.84;98384.27;1624783;88;25754;-58
2022/08/05 11:10:37;;;;;;;2.17;1.90;;;;;;;42.68;18.13;98383.09;1624481;88;25687;-58
2022/08/05 11:13:06;;;;;;;1.80;1.70;;;;;;;42.67;18.72;98383.74;1624540;88;25534;-59
2022/08/05 11:15:40;;;;;;;3.60;2.00;;;;;;;42.47;17.73;98380.06;1624564;88;27419;-59
2022/08/05 11:18:26;;;;;;;3.80;1.90;;;;;;;42.80;18.36;98380.16;1624150;87;25675;-58
2022/08/05 11:20:53;;;;;;;4.10;1.90;;;;;;;42.66;19.25;98374.97;1624198;88;25660;-61
2022/08/05 11:23:44;;;;;;;2.77;1.70;;;;;;;42.84;17.56;98376.30;1624593;88;25757;-59
2022/08/05 11:26:22;;;;;;;5.65;2.20;;;;;;;42.70;16.99;98381.86;1597972;89;25738;-60
2022/08/05 11:28:50;;;;;;;2.30;1.65;;;;;;;42.76;19.10;98377.59;1598049;88;25902;-58
2022/08/05 11:31:29;;;;;;;3.87;1.87;;;;;;;42.72;17.94;98378.58;1622600;88;25921;-58
2022/08/05 11:34:00;;;;;;;2.22;1.98;;;;;;;42.94;18.43;98383.09;1624160;87;25457;-58
2022/08/05 11:36:43;;;;;;;2.95;2.00;;;;;;;42.72;19.24;98377.78;1624076;87;25712;-59
2022/08/05 11:39:13;;;;;;;4.35;2.00;;;;;;;43.11;19.59;98374.98;1624497;87;25653;-58
2022/08/05 11:41:44;;;;;;;4.47;1.70;;;;;;;43.37;19.75;98369.17;1624148;88;28271;-58
2022/08/05 11:44:14;;;;;;;1.87;1.77;;;;;;;43.15;19.45;98374.67;1623852;87;26366;-58
2022/08/05 11:46:50;;;;;;;2.62;1.70;;;;;;;43.34;18.73;98370.27;1624324;87;25459;-58